x

West Bermuda - 240 Nm West Of Bermuda (41048) Wave Buoy

1:50pm - Thu 21st Aug 2014 All times are UTC.

  • Sig Wave height 4.6ft
  • Swell Direction
  • Peak Period 7s
  • Average Period 5s
  • Wind
    16mph, 18mph gusts
  • Sea Temp 81°f
  • Air Temp 79°f
  • Sea Pressure 1019.8mb

More Historic Weather Station data

Upgrade to MSW Pro to gain access to the past 30 days of data for over 8000 Wavebouys and Weather Stations around the globe.

Join Pro

Comparision Forecast

View Surf forecast
   
Thu 08/21 1:50pm 4.5ft 7s 5s 16 18 mph 1019.8mb 81f 79f
12:50pm 4.5ft 8s 5s 16
mph
1020.4mb 81f 78f
11:50am 5ft 8s 5s 11 13 mph 1019.9mb 81f 77f
10:50am 5ft 8s 5s 25 36 mph 1019.5mb 82f 77f
9:50am 5ft 8s 5s 13 18 mph 1019mb 82f 76f
8:50am 5ft 8s 5s 11 18 mph 1018.2mb 82f 80f
7:50am 5ft 7s 5s 18 27 mph 1018.1mb 82f 76f
6:50am 5.5ft 7s 5s 18 20 mph 1018mb 82f 79f
5:50am 6ft 7s 5s 20 25 mph 1018.1mb 82f 82f
4:50am 6ft 7s 5s 18 22 mph 1018.6mb 82f 82f
3:50am 6ft 8s 6s 18 22 mph 1018.3mb 82f 82f
2:50am 6ft 8s 5s 18 20 mph 1018.4mb 82f 82f
1:50am 5ft 8s 5s 18 20 mph 1018.1mb 82f 82f
Wed 08/20 11:50pm 5.5ft 7s 5s 18 20 mph 1017.3mb 82f 82f
10:50pm 5.5ft 7s 5s 18 20 mph 1017.3mb 82f 82f
9:50pm 5ft 7s 5s 18 20 mph 1017.2mb 82f 82f
8:50pm 6ft 7s 5s 20 22 mph 1017.3mb 82f 83f
7:50pm 5ft 7s 5s 20 25 mph 1017.2mb 82f 83f
6:50pm 5ft 7s 5s 20 22 mph 1017.3mb 82f 83f
5:50pm 5ft 7s 5s 20 22 mph 1017.7mb 82f 82f
4:50pm 5.5ft 7s 5s 18 20 mph 1017.8mb 82f 82f
3:50pm 5.5ft 8s 5s 16 18 mph 1018mb 82f 82f
2:50pm 5ft 7s 5s 16 18 mph 1017.8mb 82f 82f
1:50pm 5.5ft 7s 5s 18 20 mph 1017.2mb 82f 82f
12:50pm 5.5ft 7s 5s 18 20 mph 1016.8mb 81f 82f
11:50am 6ft 7s 5s 18 20 mph 1016.5mb 81f 82f
10:50am 5.5ft 7s 5s 18 22 mph 1015.7mb 81f 82f
9:50am 5ft 8s 5s 18 22 mph 1014.8mb 81f 82f
8:50am 5.5ft 8s 5s 13 20 mph 1014.6mb 81f 78f
7:50am 6ft 8s 6s 20 22 mph 1014.3mb 81f 81f
6:50am 6ft 8s 6s 20 22 mph 1014.5mb 82f 81f
5:50am 6ft 8s 6s 20 25 mph 1014.5mb 82f 82f
4:50am 6ft 7s 5s 20 22 mph 1015.1mb 82f 82f
3:50am 5.5ft 8s 5s 20 22 mph 1015.3mb 82f 82f
2:50am 6ft 7s 5s 16 20 mph 1015.1mb 82f 81f
1:50am 6ft 7s 6s 18 22 mph 1014.9mb 82f 82f
12:50am 6ft 7s 5s 18 22 mph 1014.7mb 82f 82f
Tue 08/19 11:50pm 6ft 7s 5s 18 22 mph 1014.6mb 82f 82f
10:50pm 6ft 7s 5s 18 20 mph 1014.4mb 82f 82f
9:50pm 5.5ft 6s 5s 20 22 mph 1014.3mb 82f 81f
8:50pm 5ft 6s 5s 18 22 mph 1014.2mb 82f 81f
7:50pm 5ft 6s 5s 22 27 mph 1014.4mb 82f 81f
6:50pm 4.5ft 5s 5s 25 29 mph 1014.6mb 82f 81f
5:50pm 4.5ft 6s 4s 25 27 mph 1015.1mb 82f 81f
4:50pm 3.5ft 6s 4s 22 27 mph 1014.9mb 82f 81f
3:50pm 3.5ft 6s 5s 18 20 mph 1015.3mb 82f 81f
2:50pm 3.5ft 6s 5s 18 25 mph 1015.4mb 82f 82f
1:50pm 3ft 6s 5s 11 16 mph 1015.1mb 82f 82f
12:50pm 3.5ft 6s 5s 11 13 mph 1014.8mb 82f 82f
11:50am 3.5ft 6s 5s 11 13 mph 1014.7mb 82f 82f
10:50am 3.5ft 6s 5s 9 11 mph 1014.5mb 82f 82f
9:50am 3.5ft 6s 5s 13
mph
1014mb 82f 81f
8:50am 3.5ft 6s 5s 11 13 mph 1013.6mb 82f 81f
7:50am 3.5ft 6s 5s 11 13 mph 1013.5mb 82f 81f
6:50am 3.5ft 6s 5s 13 16 mph 1013.7mb 82f 81f
5:50am 3.5ft 6s 5s 13 16 mph 1013.8mb 82f 81f
4:50am 3.5ft 6s 5s 11 13 mph 1014.3mb 82f 81f
3:50am 3.5ft 6s 5s 11 13 mph 1014.5mb 82f 82f
2:50am 3.5ft 6s 5s 9 11 mph 1014.8mb 82f 82f
1:50am 3.5ft 6s 5s 9 11 mph 1015mb 82f 82f
12:50am 3.5ft 5s 5s 11 13 mph 1014.7mb 82f 82f
Mon 08/18 11:50pm 3.5ft 6s 5s 11 13 mph 1014.2mb 82f 82f
10:50pm 3.5ft 6s 5s 13 16 mph 1013.8mb 82f 82f
9:50pm 3.5ft 6s 5s 13 16 mph 1013.9mb 82f 83f
8:50pm 4ft 6s 5s 13 16 mph 1014.1mb 82f 82f
7:50pm 3.5ft 6s 5s 13 16 mph 1014.2mb 82f 82f
6:50pm 3.5ft 6s 5s 13 16 mph 1014.4mb 82f 82f
5:50pm 4ft 6s 5s 11 13 mph 1015.3mb 82f 82f
4:50pm 4ft 6s 5s 13 16 mph 1015.4mb 82f 82f
3:50pm 4.5ft 6s 5s 13 16 mph 1015.8mb 82f 82f
2:50pm 4ft 6s 5s 13 16 mph 1015.9mb 82f 82f
1:50pm 4.5ft 6s 5s 13 18 mph 1015.8mb 81f 82f
12:50pm 4.5ft 6s 5s 16 18 mph 1015.7mb 81f 82f
11:50am 4.5ft 6s 5s 13 16 mph 1015.6mb 81f 82f
10:50am 4.5ft 6s 5s 16 18 mph 1015.1mb 81f 81f
9:50am 4.5ft 6s 5s 13 18 mph 1014.8mb 81f 81f
8:50am 4.5ft 6s 5s 16 20 mph 1014.5mb 81f 81f
7:50am 4.5ft 6s 5s 18 20 mph 1014.6mb 81f 81f
6:50am 4.5ft 6s 5s 18 22 mph 1014.7mb 81f 82f
5:50am 4.5ft 7s 5s 18 22 mph 1015mb 81f 81f
4:50am 4.5ft 7s 5s 18 22 mph 1015.4mb 81f 82f
3:50am 4.5ft 7s 5s 18 20 mph 1016mb 81f 82f
2:50am 4.5ft 7s 5s 16 20 mph 1016.1mb 81f 82f
1:50am 4.5ft 7s 5s 16 18 mph 1016.5mb 81f 82f
12:50am 4ft 6s 5s 13 18 mph 1016.4mb 81f 81f
Sun 08/17 11:50pm 4.5ft 6s 5s 13 16 mph 1016.4mb 81f 82f
10:50pm 4ft 7s 5s 16 18 mph 1016.2mb 81f 82f
9:50pm 4.5ft 6s 5s 13 16 mph 1016.3mb 81f 82f
8:50pm 4ft 7s 5s 16 20 mph 1016.5mb 81f 81f
7:50pm 4.5ft 6s 5s 16 18 mph 1016.1mb 81f 80f
6:50pm 4.5ft 6s 5s 18 20 mph 1016.7mb 81f 79f
5:50pm 3.5ft 7s 5s 13 16 mph 1017.5mb 81f 79f
4:50pm 3.5ft 6s 5s 13 18 mph 1017.8mb 81f 80f
3:50pm 3.5ft 6s 5s 16 18 mph 1017.9mb 81f 81f